sensor_id;sensor_type;location;lat;lon;timestamp;P1;durP1;ratioP1;P2;durP2;ratioP2
48268;SDS011;34088;52.232;5.196;2022-10-16T14:32:28;12.35;;;2.28;;
48268;SDS011;34088;52.232;5.196;2022-10-16T14:34:54;12.35;;;2.78;;
48268;SDS011;34088;52.232;5.196;2022-10-16T14:37:23;11.40;;;2.45;;
48268;SDS011;34088;52.232;5.196;2022-10-16T14:40:46;9.20;;;2.28;;
48268;SDS011;34088;52.232;5.196;2022-10-16T14:44:09;16.23;;;3.13;;
48268;SDS011;34088;52.232;5.196;2022-10-16T14:47:32;10.15;;;3.42;;
48268;SDS011;34088;52.232;5.196;2022-10-16T14:50:51;12.27;;;2.90;;
48268;SDS011;34088;52.232;5.196;2022-10-16T14:54:11;11.25;;;3.05;;
48268;SDS011;34088;52.232;5.196;2022-10-16T14:57:32;12.18;;;3.33;;
48268;SDS011;34088;52.232;5.196;2022-10-16T15:00:51;11.13;;;3.08;;
48268;SDS011;34088;52.232;5.196;2022-10-16T15:04:10;11.45;;;2.55;;
48268;SDS011;34088;52.232;5.196;2022-10-16T15:07:40;13.63;;;2.50;;
48268;SDS011;34088;52.232;5.196;2022-10-16T15:10:58;12.20;;;2.60;;
48268;SDS011;34088;52.232;5.196;2022-10-16T15:14:17;11.18;;;2.50;;
48268;SDS011;34088;52.232;5.196;2022-10-16T15:17:55;11.52;;;2.75;;
48268;SDS011;34088;52.232;5.196;2022-10-16T15:21:27;10.70;;;3.75;;
48268;SDS011;34088;52.232;5.196;2022-10-16T15:24:48;10.80;;;2.33;;
48268;SDS011;34088;52.232;5.196;2022-10-16T15:28:08;10.98;;;2.97;;
48268;SDS011;34088;52.232;5.196;2022-10-16T15:31:26;14.15;;;2.97;;
48268;SDS011;34088;52.232;5.196;2022-10-16T15:38:03;14.00;;;3.17;;
48268;SDS011;34088;52.232;5.196;2022-10-16T15:41:21;12.50;;;2.92;;
48268;SDS011;34088;52.232;5.196;2022-10-16T15:44:40;14.75;;;3.58;;
48268;SDS011;34088;52.232;5.196;2022-10-16T15:47:58;10.02;;;2.80;;
48268;SDS011;34088;52.232;5.196;2022-10-16T15:51:17;15.63;;;3.28;;
48268;SDS011;34088;52.232;5.196;2022-10-16T15:54:35;13.13;;;3.17;;
48268;SDS011;34088;52.232;5.196;2022-10-16T15:57:54;16.55;;;4.00;;
48268;SDS011;34088;52.232;5.196;2022-10-16T16:01:12;15.07;;;4.13;;
48268;SDS011;34088;52.232;5.196;2022-10-16T16:04:30;22.95;;;9.27;;
48268;SDS011;34088;52.232;5.196;2022-10-16T16:07:49;18.38;;;7.63;;
48268;SDS011;34088;52.232;5.196;2022-10-16T16:11:11;15.07;;;5.50;;
48268;SDS011;34088;52.232;5.196;2022-10-16T16:14:30;23.00;;;8.38;;
48268;SDS011;34088;52.232;5.196;2022-10-16T16:17:49;16.50;;;4.15;;
48268;SDS011;34088;52.232;5.196;2022-10-16T16:21:07;16.88;;;4.72;;
48268;SDS011;34088;52.232;5.196;2022-10-16T16:24:27;14.30;;;4.95;;
48268;SDS011;34088;52.232;5.196;2022-10-16T16:27:46;18.80;;;5.22;;
48268;SDS011;34088;52.232;5.196;2022-10-16T16:31:04;18.52;;;6.45;;
48268;SDS011;34088;52.232;5.196;2022-10-16T16:34:24;19.38;;;5.60;;
48268;SDS011;34088;52.232;5.196;2022-10-16T16:37:43;22.73;;;6.28;;
48268;SDS011;34088;52.232;5.196;2022-10-16T16:41:11;18.90;;;5.93;;
48268;SDS011;34088;52.232;5.196;2022-10-16T16:44:31;14.93;;;5.07;;
48268;SDS011;34088;52.232;5.196;2022-10-16T16:47:50;16.75;;;4.00;;
48268;SDS011;34088;52.232;5.196;2022-10-16T16:51:10;20.50;;;5.35;;
48268;SDS011;34088;52.232;5.196;2022-10-16T16:54:30;18.70;;;4.05;;
48268;SDS011;34088;52.232;5.196;2022-10-16T16:57:48;19.40;;;5.10;;
48268;SDS011;34088;52.232;5.196;2022-10-16T17:01:09;23.83;;;7.25;;
48268;SDS011;34088;52.232;5.196;2022-10-16T17:04:28;19.27;;;4.60;;
48268;SDS011;34088;52.232;5.196;2022-10-16T17:11:04;16.30;;;4.43;;
48268;SDS011;34088;52.232;5.196;2022-10-16T17:14:23;29.88;;;10.40;;
48268;SDS011;34088;52.232;5.196;2022-10-16T17:21:03;19.53;;;6.10;;
48268;SDS011;34088;52.232;5.196;2022-10-16T17:24:23;21.05;;;5.82;;
48268;SDS011;34088;52.232;5.196;2022-10-16T17:31:07;19.65;;;6.75;;
48268;SDS011;34088;52.232;5.196;2022-10-16T17:34:26;21.55;;;8.77;;
48268;SDS011;34088;52.232;5.196;2022-10-16T17:41:12;20.55;;;7.80;;
48268;SDS011;34088;52.232;5.196;2022-10-16T17:44:38;26.02;;;10.98;;
48268;SDS011;34088;52.232;5.196;2022-10-16T17:47:59;24.77;;;7.78;;
48268;SDS011;34088;52.232;5.196;2022-10-16T17:51:19;18.52;;;6.60;;
48268;SDS011;34088;52.232;5.196;2022-10-16T17:54:41;24.02;;;8.13;;
48268;SDS011;34088;52.232;5.196;2022-10-16T17:58:03;24.73;;;10.07;;
48268;SDS011;34088;52.232;5.196;2022-10-16T18:01:27;21.35;;;8.63;;
48268;SDS011;34088;52.232;5.196;2022-10-16T18:04:50;17.63;;;8.02;;
48268;SDS011;34088;52.232;5.196;2022-10-16T18:11:27;17.35;;;7.85;;
48268;SDS011;34088;52.232;5.196;2022-10-16T18:14:45;16.02;;;7.65;;
48268;SDS011;34088;52.232;5.196;2022-10-16T18:21:21;19.77;;;7.78;;
48268;SDS011;34088;52.232;5.196;2022-10-16T18:24:40;23.90;;;12.48;;
48268;SDS011;34088;52.232;5.196;2022-10-16T18:31:17;21.08;;;10.35;;
48268;SDS011;34088;52.232;5.196;2022-10-16T18:34:35;24.13;;;11.55;;
48268;SDS011;34088;52.232;5.196;2022-10-16T18:41:12;26.30;;;10.20;;
48268;SDS011;34088;52.232;5.196;2022-10-16T18:47:48;21.83;;;11.13;;
48268;SDS011;34088;52.232;5.196;2022-10-16T18:51:08;22.80;;;10.43;;
48268;SDS011;34088;52.232;5.196;2022-10-16T18:54:33;22.80;;;11.65;;
48268;SDS011;34088;52.232;5.196;2022-10-16T18:57:53;25.38;;;10.68;;
48268;SDS011;34088;52.232;5.196;2022-10-16T19:01:13;23.05;;;10.07;;
48268;SDS011;34088;52.232;5.196;2022-10-16T19:04:33;21.38;;;10.13;;
48268;SDS011;34088;52.232;5.196;2022-10-16T19:11:13;18.17;;;8.40;;
48268;SDS011;34088;52.232;5.196;2022-10-16T19:14:34;20.02;;;9.13;;
48268;SDS011;34088;52.232;5.196;2022-10-16T19:17:52;22.13;;;10.70;;
48268;SDS011;34088;52.232;5.196;2022-10-16T19:24:51;20.10;;;8.95;;
48268;SDS011;34088;52.232;5.196;2022-10-16T19:28:09;27.13;;;13.05;;
48268;SDS011;34088;52.232;5.196;2022-10-16T19:31:28;29.50;;;16.02;;
48268;SDS011;34088;52.232;5.196;2022-10-16T19:34:48;24.63;;;15.80;;
48268;SDS011;34088;52.232;5.196;2022-10-16T19:38:07;23.77;;;13.13;;
48268;SDS011;34088;52.232;5.196;2022-10-16T19:41:26;21.90;;;12.30;;
48268;SDS011;34088;52.232;5.196;2022-10-16T19:44:45;26.27;;;14.40;;
48268;SDS011;34088;52.232;5.196;2022-10-16T19:51:23;20.55;;;10.65;;
48268;SDS011;34088;52.232;5.196;2022-10-16T19:54:42;23.30;;;9.32;;
48268;SDS011;34088;52.232;5.196;2022-10-16T19:58:00;26.85;;;10.38;;
48268;SDS011;34088;52.232;5.196;2022-10-16T20:01:19;25.00;;;8.68;;
48268;SDS011;34088;52.232;5.196;2022-10-16T20:04:38;22.88;;;9.43;;
48268;SDS011;34088;52.232;5.196;2022-10-16T20:11:25;23.55;;;8.63;;
48268;SDS011;34088;52.232;5.196;2022-10-16T20:14:44;23.58;;;8.85;;
48268;SDS011;34088;52.232;5.196;2022-10-16T20:21:25;18.25;;;8.13;;
48268;SDS011;34088;52.232;5.196;2022-10-16T20:24:44;20.70;;;8.63;;
48268;SDS011;34088;52.232;5.196;2022-10-16T20:28:04;23.70;;;9.93;;
48268;SDS011;34088;52.232;5.196;2022-10-16T20:31:26;21.08;;;9.63;;
48268;SDS011;34088;52.232;5.196;2022-10-16T20:34:45;24.85;;;10.15;;
48268;SDS011;34088;52.232;5.196;2022-10-16T20:38:05;23.50;;;10.10;;
48268;SDS011;34088;52.232;5.196;2022-10-16T20:41:23;23.13;;;9.63;;
48268;SDS011;34088;52.232;5.196;2022-10-16T20:47:59;22.20;;;9.00;;
48268;SDS011;34088;52.232;5.196;2022-10-16T20:54:43;21.08;;;9.68;;
48268;SDS011;34088;52.232;5.196;2022-10-16T20:58:02;15.95;;;9.45;;
48268;SDS011;34088;52.232;5.196;2022-10-16T21:01:22;19.30;;;9.65;;
48268;SDS011;34088;52.232;5.196;2022-10-16T21:04:41;19.48;;;9.00;;
48268;SDS011;34088;52.232;5.196;2022-10-16T21:08:03;20.95;;;10.00;;
48268;SDS011;34088;52.232;5.196;2022-10-16T21:11:25;19.33;;;9.18;;
48268;SDS011;34088;52.232;5.196;2022-10-16T21:14:43;19.85;;;9.00;;
48268;SDS011;34088;52.232;5.196;2022-10-16T21:18:01;15.32;;;8.65;;
48268;SDS011;34088;52.232;5.196;2022-10-16T21:24:52;19.08;;;9.05;;
48268;SDS011;34088;52.232;5.196;2022-10-16T21:28:13;18.08;;;9.10;;
48268;SDS011;34088;52.232;5.196;2022-10-16T21:34:49;18.52;;;8.85;;
48268;SDS011;34088;52.232;5.196;2022-10-16T21:38:08;18.88;;;8.13;;
48268;SDS011;34088;52.232;5.196;2022-10-16T21:41:27;16.30;;;8.38;;
48268;SDS011;34088;52.232;5.196;2022-10-16T21:44:46;14.38;;;7.97;;
48268;SDS011;34088;52.232;5.196;2022-10-16T21:48:04;15.38;;;7.60;;
48268;SDS011;34088;52.232;5.196;2022-10-16T21:51:27;17.92;;;7.65;;
48268;SDS011;34088;52.232;5.196;2022-10-16T21:54:46;15.65;;;7.20;;
48268;SDS011;34088;52.232;5.196;2022-10-16T21:58:04;11.93;;;7.28;;
48268;SDS011;34088;52.232;5.196;2022-10-16T22:04:41;11.88;;;6.35;;
48268;SDS011;34088;52.232;5.196;2022-10-16T22:11:20;9.32;;;5.60;;
48268;SDS011;34088;52.232;5.196;2022-10-16T22:14:43;8.20;;;5.15;;
48268;SDS011;34088;52.232;5.196;2022-10-16T22:18:02;12.95;;;5.63;;
48268;SDS011;34088;52.232;5.196;2022-10-16T22:21:21;11.15;;;5.80;;
48268;SDS011;34088;52.232;5.196;2022-10-16T22:24:39;11.82;;;5.90;;
48268;SDS011;34088;52.232;5.196;2022-10-16T22:31:16;11.98;;;7.00;;
48268;SDS011;34088;52.232;5.196;2022-10-16T22:37:52;10.40;;;6.32;;
48268;SDS011;34088;52.232;5.196;2022-10-16T22:44:29;12.43;;;6.38;;
48268;SDS011;34088;52.232;5.196;2022-10-16T22:47:47;12.77;;;6.90;;
48268;SDS011;34088;52.232;5.196;2022-10-16T22:54:24;11.70;;;5.80;;
48268;SDS011;34088;52.232;5.196;2022-10-16T23:01:00;11.90;;;6.65;;
48268;SDS011;34088;52.232;5.196;2022-10-16T23:07:36;10.63;;;6.20;;
48268;SDS011;34088;52.232;5.196;2022-10-16T23:10:55;13.00;;;7.05;;
48268;SDS011;34088;52.232;5.196;2022-10-16T23:17:32;12.48;;;6.82;;
48268;SDS011;34088;52.232;5.196;2022-10-16T23:24:09;11.68;;;6.65;;
48268;SDS011;34088;52.232;5.196;2022-10-16T23:27:29;9.25;;;6.88;;
48268;SDS011;34088;52.232;5.196;2022-10-16T23:34:05;11.98;;;6.80;;
48268;SDS011;34088;52.232;5.196;2022-10-16T23:40:41;14.20;;;7.93;;
48268;SDS011;34088;52.232;5.196;2022-10-16T23:47:17;12.70;;;7.40;;
48268;SDS011;34088;52.232;5.196;2022-10-16T23:53:53;12.43;;;7.47;;
48268;SDS011;34088;52.232;5.196;2022-10-16T23:57:11;14.07;;;7.72;;
